sensor_id;sensor_type;location;lat;lon;timestamp;P1;durP1;ratioP1;P2;durP2;ratioP2
1991;SDS011;997;48.448;8.924;2022-11-30T04:02:28;29.03;;;19.60;;
1991;SDS011;997;48.448;8.924;2022-11-30T04:04:54;22.47;;;17.53;;
1991;SDS011;997;48.448;8.924;2022-11-30T04:07:19;23.43;;;18.67;;
1991;SDS011;997;48.448;8.924;2022-11-30T04:09:45;22.70;;;17.70;;
1991;SDS011;997;48.448;8.924;2022-11-30T04:12:11;22.90;;;17.57;;
1991;SDS011;997;48.448;8.924;2022-11-30T04:14:36;23.90;;;18.37;;
1991;SDS011;997;48.448;8.924;2022-11-30T04:17:02;24.87;;;18.03;;
1991;SDS011;997;48.448;8.924;2022-11-30T04:19:27;22.83;;;17.63;;
1991;SDS011;997;48.448;8.924;2022-11-30T04:21:53;24.93;;;18.50;;
1991;SDS011;997;48.448;8.924;2022-11-30T04:24:19;22.17;;;16.43;;
1991;SDS011;997;48.448;8.924;2022-11-30T04:26:44;18.30;;;15.47;;
1991;SDS011;997;48.448;8.924;2022-11-30T04:29:10;20.87;;;15.90;;
1991;SDS011;997;48.448;8.924;2022-11-30T04:31:36;19.53;;;16.37;;
1991;SDS011;997;48.448;8.924;2022-11-30T04:34:01;21.30;;;15.90;;
1991;SDS011;997;48.448;8.924;2022-11-30T04:36:27;22.60;;;18.67;;
1991;SDS011;997;48.448;8.924;2022-11-30T04:38:52;27.80;;;16.27;;
1991;SDS011;997;48.448;8.924;2022-11-30T04:41:18;20.10;;;16.47;;
1991;SDS011;997;48.448;8.924;2022-11-30T04:43:44;18.77;;;15.50;;
1991;SDS011;997;48.448;8.924;2022-11-30T04:46:09;23.07;;;16.47;;
1991;SDS011;997;48.448;8.924;2022-11-30T04:48:35;20.90;;;14.83;;
1991;SDS011;997;48.448;8.924;2022-11-30T04:51:02;23.80;;;17.53;;
1991;SDS011;997;48.448;8.924;2022-11-30T04:53:30;22.20;;;17.37;;
1991;SDS011;997;48.448;8.924;2022-11-30T04:55:56;21.83;;;16.37;;
1991;SDS011;997;48.448;8.924;2022-11-30T04:58:22;20.10;;;16.10;;
1991;SDS011;997;48.448;8.924;2022-11-30T05:00:47;17.47;;;15.40;;
1991;SDS011;997;48.448;8.924;2022-11-30T05:03:14;20.20;;;16.07;;
1991;SDS011;997;48.448;8.924;2022-11-30T05:05:39;18.23;;;15.57;;
1991;SDS011;997;48.448;8.924;2022-11-30T05:08:05;18.43;;;14.30;;
1991;SDS011;997;48.448;8.924;2022-11-30T05:10:31;16.97;;;15.37;;
1991;SDS011;997;48.448;8.924;2022-11-30T05:12:57;16.53;;;14.43;;
1991;SDS011;997;48.448;8.924;2022-11-30T05:15:23;16.50;;;14.33;;
1991;SDS011;997;48.448;8.924;2022-11-30T05:17:49;19.27;;;13.90;;
1991;SDS011;997;48.448;8.924;2022-11-30T05:20:15;15.03;;;12.93;;
1991;SDS011;997;48.448;8.924;2022-11-30T05:22:40;20.40;;;15.77;;
1991;SDS011;997;48.448;8.924;2022-11-30T05:25:06;17.87;;;16.07;;
1991;SDS011;997;48.448;8.924;2022-11-30T05:27:33;18.33;;;15.17;;
1991;SDS011;997;48.448;8.924;2022-11-30T05:29:59;21.30;;;16.67;;
1991;SDS011;997;48.448;8.924;2022-11-30T05:32:25;18.50;;;15.30;;
1991;SDS011;997;48.448;8.924;2022-11-30T05:34:50;16.73;;;14.60;;
1991;SDS011;997;48.448;8.924;2022-11-30T05:37:16;19.13;;;16.27;;
1991;SDS011;997;48.448;8.924;2022-11-30T05:39:42;18.23;;;15.47;;
1991;SDS011;997;48.448;8.924;2022-11-30T05:42:08;17.87;;;15.50;;
1991;SDS011;997;48.448;8.924;2022-11-30T05:44:33;16.97;;;14.30;;
1991;SDS011;997;48.448;8.924;2022-11-30T05:46:59;21.57;;;17.40;;
1991;SDS011;997;48.448;8.924;2022-11-30T05:49:25;19.30;;;16.53;;
1991;SDS011;997;48.448;8.924;2022-11-30T05:51:50;17.67;;;15.77;;
1991;SDS011;997;48.448;8.924;2022-11-30T05:54:16;17.97;;;15.63;;
1991;SDS011;997;48.448;8.924;2022-11-30T05:56:42;20.30;;;15.80;;
1991;SDS011;997;48.448;8.924;2022-11-30T05:59:08;21.33;;;17.37;;
1991;SDS011;997;48.448;8.924;2022-11-30T06:01:35;22.30;;;14.90;;
1991;SDS011;997;48.448;8.924;2022-11-30T06:04:03;20.80;;;16.03;;
1991;SDS011;997;48.448;8.924;2022-11-30T06:06:30;20.83;;;16.90;;
1991;SDS011;997;48.448;8.924;2022-11-30T06:08:56;21.53;;;17.17;;
1991;SDS011;997;48.448;8.924;2022-11-30T06:11:22;19.63;;;14.80;;
1991;SDS011;997;48.448;8.924;2022-11-30T06:13:48;19.93;;;16.17;;
1991;SDS011;997;48.448;8.924;2022-11-30T06:16:13;22.20;;;16.60;;
1991;SDS011;997;48.448;8.924;2022-11-30T06:18:39;21.20;;;16.90;;
1991;SDS011;997;48.448;8.924;2022-11-30T06:21:07;18.17;;;15.40;;
1991;SDS011;997;48.448;8.924;2022-11-30T06:23:34;20.13;;;15.23;;
1991;SDS011;997;48.448;8.924;2022-11-30T06:26:04;19.37;;;14.57;;
1991;SDS011;997;48.448;8.924;2022-11-30T06:28:32;18.97;;;15.30;;
1991;SDS011;997;48.448;8.924;2022-11-30T06:30:58;21.70;;;16.50;;
1991;SDS011;997;48.448;8.924;2022-11-30T06:33:25;21.23;;;18.93;;
1991;SDS011;997;48.448;8.924;2022-11-30T06:35:50;21.07;;;16.80;;
1991;SDS011;997;48.448;8.924;2022-11-30T06:38:16;19.60;;;15.90;;
1991;SDS011;997;48.448;8.924;2022-11-30T06:40:42;17.67;;;15.70;;
1991;SDS011;997;48.448;8.924;2022-11-30T06:43:08;16.50;;;14.90;;
1991;SDS011;997;48.448;8.924;2022-11-30T06:45:33;15.33;;;13.77;;
1991;SDS011;997;48.448;8.924;2022-11-30T06:47:59;17.47;;;13.67;;
1991;SDS011;997;48.448;8.924;2022-11-30T06:50:25;18.70;;;16.07;;
1991;SDS011;997;48.448;8.924;2022-11-30T06:52:50;16.20;;;14.50;;
1991;SDS011;997;48.448;8.924;2022-11-30T06:55:16;16.90;;;15.00;;
1991;SDS011;997;48.448;8.924;2022-11-30T06:57:42;18.03;;;14.53;;
1991;SDS011;997;48.448;8.924;2022-11-30T07:00:08;19.23;;;14.23;;
1991;SDS011;997;48.448;8.924;2022-11-30T07:02:36;18.07;;;13.50;;
1991;SDS011;997;48.448;8.924;2022-11-30T07:05:01;17.43;;;14.40;;
1991;SDS011;997;48.448;8.924;2022-11-30T07:07:28;15.40;;;13.57;;
1991;SDS011;997;48.448;8.924;2022-11-30T07:09:54;16.40;;;14.50;;
1991;SDS011;997;48.448;8.924;2022-11-30T07:12:20;14.97;;;13.47;;
1991;SDS011;997;48.448;8.924;2022-11-30T07:14:46;14.70;;;13.17;;
1991;SDS011;997;48.448;8.924;2022-11-30T07:17:12;14.93;;;13.33;;
1991;SDS011;997;48.448;8.924;2022-11-30T07:19:37;13.87;;;11.80;;
1991;SDS011;997;48.448;8.924;2022-11-30T07:22:03;16.13;;;14.13;;
1991;SDS011;997;48.448;8.924;2022-11-30T07:24:29;21.43;;;19.00;;
1991;SDS011;997;48.448;8.924;2022-11-30T07:27:14;20.17;;;17.83;;
1991;SDS011;997;48.448;8.924;2022-11-30T07:29:39;16.77;;;15.00;;
1991;SDS011;997;48.448;8.924;2022-11-30T07:32:05;16.70;;;15.00;;
1991;SDS011;997;48.448;8.924;2022-11-30T07:34:31;17.60;;;15.33;;
1991;SDS011;997;48.448;8.924;2022-11-30T07:36:56;16.00;;;13.67;;
1991;SDS011;997;48.448;8.924;2022-11-30T07:39:22;17.43;;;13.87;;
1991;SDS011;997;48.448;8.924;2022-11-30T07:41:48;15.60;;;13.40;;
1991;SDS011;997;48.448;8.924;2022-11-30T07:44:14;20.70;;;14.97;;
1991;SDS011;997;48.448;8.924;2022-11-30T07:46:40;17.30;;;15.00;;
1991;SDS011;997;48.448;8.924;2022-11-30T07:49:06;15.43;;;13.23;;
1991;SDS011;997;48.448;8.924;2022-11-30T07:51:34;16.23;;;14.10;;
1991;SDS011;997;48.448;8.924;2022-11-30T07:54:00;19.53;;;14.50;;
1991;SDS011;997;48.448;8.924;2022-11-30T07:56:26;16.00;;;13.90;;
1991;SDS011;997;48.448;8.924;2022-11-30T07:58:57;14.43;;;13.00;;
1991;SDS011;997;48.448;8.924;2022-11-30T08:01:25;16.33;;;13.90;;
1991;SDS011;997;48.448;8.924;2022-11-30T08:03:53;14.00;;;12.50;;
1991;SDS011;997;48.448;8.924;2022-11-30T08:06:20;15.60;;;14.00;;
1991;SDS011;997;48.448;8.924;2022-11-30T08:08:47;13.40;;;12.00;;
1991;SDS011;997;48.448;8.924;2022-11-30T08:11:15;16.73;;;13.97;;
1991;SDS011;997;48.448;8.924;2022-11-30T08:13:44;16.63;;;14.83;;
1991;SDS011;997;48.448;8.924;2022-11-30T08:16:10;16.10;;;14.50;;
1991;SDS011;997;48.448;8.924;2022-11-30T08:18:38;16.50;;;13.10;;
1991;SDS011;997;48.448;8.924;2022-11-30T08:21:05;19.10;;;14.60;;
1991;SDS011;997;48.448;8.924;2022-11-30T08:23:34;17.47;;;14.80;;
1991;SDS011;997;48.448;8.924;2022-11-30T08:26:05;15.53;;;13.90;;
1991;SDS011;997;48.448;8.924;2022-11-30T08:28:33;15.43;;;13.40;;
1991;SDS011;997;48.448;8.924;2022-11-30T08:31:02;16.07;;;14.20;;
1991;SDS011;997;48.448;8.924;2022-11-30T08:33:34;16.17;;;14.03;;
1991;SDS011;997;48.448;8.924;2022-11-30T08:38:37;13.27;;;10.90;;
1991;SDS011;997;48.448;8.924;2022-11-30T08:41:03;15.97;;;11.60;;
1991;SDS011;997;48.448;8.924;2022-11-30T08:43:29;16.03;;;11.67;;
1991;SDS011;997;48.448;8.924;2022-11-30T08:45:55;20.27;;;15.50;;
1991;SDS011;997;48.448;8.924;2022-11-30T08:48:21;14.27;;;12.30;;
1991;SDS011;997;48.448;8.924;2022-11-30T08:50:47;14.10;;;11.60;;
1991;SDS011;997;48.448;8.924;2022-11-30T08:53:13;12.87;;;11.60;;
1991;SDS011;997;48.448;8.924;2022-11-30T08:55:38;13.00;;;11.70;;
1991;SDS011;997;48.448;8.924;2022-11-30T08:58:04;12.13;;;10.77;;
1991;SDS011;997;48.448;8.924;2022-11-30T09:00:30;15.80;;;12.10;;
1991;SDS011;997;48.448;8.924;2022-11-30T09:02:55;13.60;;;12.20;;
1991;SDS011;997;48.448;8.924;2022-11-30T09:05:21;14.87;;;12.47;;
1991;SDS011;997;48.448;8.924;2022-11-30T09:07:47;17.33;;;14.37;;
1991;SDS011;997;48.448;8.924;2022-11-30T09:10:13;15.23;;;13.57;;
1991;SDS011;997;48.448;8.924;2022-11-30T09:12:39;13.67;;;12.27;;
1991;SDS011;997;48.448;8.924;2022-11-30T09:15:06;14.70;;;12.27;;
1991;SDS011;997;48.448;8.924;2022-11-30T09:17:33;12.73;;;11.00;;
1991;SDS011;997;48.448;8.924;2022-11-30T09:19:59;16.80;;;13.03;;
1991;SDS011;997;48.448;8.924;2022-11-30T09:22:25;12.97;;;11.37;;
1991;SDS011;997;48.448;8.924;2022-11-30T09:24:52;15.77;;;11.73;;
1991;SDS011;997;48.448;8.924;2022-11-30T09:27:18;11.33;;;9.80;;
1991;SDS011;997;48.448;8.924;2022-11-30T09:29:44;13.30;;;11.47;;
1991;SDS011;997;48.448;8.924;2022-11-30T09:32:09;13.13;;;10.83;;
1991;SDS011;997;48.448;8.924;2022-11-30T09:34:35;12.23;;;10.67;;
1991;SDS011;997;48.448;8.924;2022-11-30T09:37:01;12.67;;;11.27;;
1991;SDS011;997;48.448;8.924;2022-11-30T09:39:26;14.93;;;10.40;;
1991;SDS011;997;48.448;8.924;2022-11-30T09:42:12;10.67;;;9.57;;
1991;SDS011;997;48.448;8.924;2022-11-30T09:50:19;12.80;;;10.90;;
1991;SDS011;997;48.448;8.924;2022-11-30T09:52:54;12.80;;;10.70;;
1991;SDS011;997;48.448;8.924;2022-11-30T09:55:29;10.50;;;9.50;;
1991;SDS011;997;48.448;8.924;2022-11-30T09:58:03;12.17;;;10.50;;
1991;SDS011;997;48.448;8.924;2022-11-30T10:00:30;11.63;;;10.43;;
1991;SDS011;997;48.448;8.924;2022-11-30T10:02:57;12.33;;;11.00;;
1991;SDS011;997;48.448;8.924;2022-11-30T11:03:23;13.50;;;12.13;;
1991;SDS011;997;48.448;8.924;2022-11-30T11:06:04;12.37;;;10.87;;
1991;SDS011;997;48.448;8.924;2022-11-30T11:08:34;12.63;;;10.60;;
1991;SDS011;997;48.448;8.924;2022-11-30T11:11:00;12.93;;;10.47;;
1991;SDS011;997;48.448;8.924;2022-11-30T11:13:41;12.30;;;11.00;;
1991;SDS011;997;48.448;8.924;2022-11-30T11:16:11;12.70;;;11.00;;
1991;SDS011;997;48.448;8.924;2022-11-30T11:18:53;11.33;;;10.23;;
1991;SDS011;997;48.448;8.924;2022-11-30T11:21:20;11.57;;;9.70;;
1991;SDS011;997;48.448;8.924;2022-11-30T11:23:50;10.00;;;9.00;;
1991;SDS011;997;48.448;8.924;2022-11-30T11:26:22;9.97;;;8.47;;
1991;SDS011;997;48.448;8.924;2022-11-30T11:28:50;11.17;;;10.10;;
1991;SDS011;997;48.448;8.924;2022-11-30T11:31:22;10.37;;;9.30;;
1991;SDS011;997;48.448;8.924;2022-11-30T11:33:55;10.63;;;9.13;;
1991;SDS011;997;48.448;8.924;2022-11-30T11:36:39;10.73;;;9.00;;
1991;SDS011;997;48.448;8.924;2022-11-30T11:39:07;14.20;;;9.83;;
1991;SDS011;997;48.448;8.924;2022-11-30T11:41:49;9.73;;;8.47;;
1991;SDS011;997;48.448;8.924;2022-11-30T11:47:02;8.57;;;7.77;;
1991;SDS011;997;48.448;8.924;2022-11-30T11:49:31;9.33;;;8.30;;
1991;SDS011;997;48.448;8.924;2022-11-30T11:57:10;10.80;;;9.70;;
1991;SDS011;997;48.448;8.924;2022-11-30T12:02:46;12.13;;;9.00;;
1991;SDS011;997;48.448;8.924;2022-11-30T12:10:37;11.53;;;9.60;;
1991;SDS011;997;48.448;8.924;2022-11-30T12:13:47;12.13;;;10.60;;
1991;SDS011;997;48.448;8.924;2022-11-30T12:35:20;11.17;;;9.27;;
1991;SDS011;997;48.448;8.924;2022-11-30T12:52:19;12.33;;;9.47;;
1991;SDS011;997;48.448;8.924;2022-11-30T12:57:57;13.53;;;11.47;;
1991;SDS011;997;48.448;8.924;2022-11-30T13:01:19;15.33;;;10.90;;
1991;SDS011;997;48.448;8.924;2022-11-30T13:03:44;14.20;;;10.73;;
1991;SDS011;997;48.448;8.924;2022-11-30T13:06:22;14.13;;;9.77;;
1991;SDS011;997;48.448;8.924;2022-11-30T13:09:15;11.53;;;10.33;;
1991;SDS011;997;48.448;8.924;2022-11-30T13:11:44;10.03;;;8.30;;
1991;SDS011;997;48.448;8.924;2022-11-30T13:14:23;15.37;;;9.80;;
1991;SDS011;997;48.448;8.924;2022-11-30T13:16:55;10.10;;;8.17;;
1991;SDS011;997;48.448;8.924;2022-11-30T13:24:46;11.03;;;9.63;;
1991;SDS011;997;48.448;8.924;2022-11-30T13:27:23;12.17;;;8.90;;
1991;SDS011;997;48.448;8.924;2022-11-30T13:36:06;12.00;;;10.03;;
1991;SDS011;997;48.448;8.924;2022-11-30T13:46:57;11.40;;;9.37;;
1991;SDS011;997;48.448;8.924;2022-11-30T13:49:29;10.30;;;9.13;;
1991;SDS011;997;48.448;8.924;2022-11-30T13:51:57;9.93;;;9.03;;
1991;SDS011;997;48.448;8.924;2022-11-30T13:54:36;11.73;;;9.30;;
1991;SDS011;997;48.448;8.924;2022-11-30T13:59:56;9.33;;;8.33;;
1991;SDS011;997;48.448;8.924;2022-11-30T14:07:42;11.73;;;9.60;;
1991;SDS011;997;48.448;8.924;2022-11-30T14:26:15;10.80;;;9.50;;
1991;SDS011;997;48.448;8.924;2022-11-30T14:31:33;10.83;;;9.13;;
1991;SDS011;997;48.448;8.924;2022-11-30T14:34:08;11.27;;;10.07;;
1991;SDS011;997;48.448;8.924;2022-11-30T14:36:41;11.93;;;10.07;;
1991;SDS011;997;48.448;8.924;2022-11-30T14:42:22;13.70;;;10.77;;
1991;SDS011;997;48.448;8.924;2022-11-30T14:44:50;10.27;;;9.07;;
1991;SDS011;997;48.448;8.924;2022-11-30T14:49:57;13.03;;;11.73;;
1991;SDS011;997;48.448;8.924;2022-11-30T15:01:15;23.70;;;18.20;;
1991;SDS011;997;48.448;8.924;2022-11-30T15:03:47;17.67;;;14.10;;
1991;SDS011;997;48.448;8.924;2022-11-30T15:06:15;14.20;;;11.93;;
1991;SDS011;997;48.448;8.924;2022-11-30T15:08:53;12.50;;;10.90;;
1991;SDS011;997;48.448;8.924;2022-11-30T15:11:21;14.87;;;11.50;;
1991;SDS011;997;48.448;8.924;2022-11-30T15:13:54;12.60;;;11.00;;
1991;SDS011;997;48.448;8.924;2022-11-30T15:16:25;11.73;;;10.40;;
1991;SDS011;997;48.448;8.924;2022-11-30T15:18:53;12.80;;;10.50;;
1991;SDS011;997;48.448;8.924;2022-11-30T15:21:24;13.33;;;10.00;;
1991;SDS011;997;48.448;8.924;2022-11-30T15:23:53;11.87;;;9.50;;
1991;SDS011;997;48.448;8.924;2022-11-30T15:26:21;12.40;;;11.00;;
1991;SDS011;997;48.448;8.924;2022-11-30T15:28:59;10.20;;;9.07;;
1991;SDS011;997;48.448;8.924;2022-11-30T15:31:36;11.73;;;10.50;;
1991;SDS011;997;48.448;8.924;2022-11-30T15:34:05;12.10;;;10.30;;
1991;SDS011;997;48.448;8.924;2022-11-30T15:36:40;14.13;;;11.17;;
1991;SDS011;997;48.448;8.924;2022-11-30T15:39:07;12.13;;;10.83;;
1991;SDS011;997;48.448;8.924;2022-11-30T15:41:46;12.30;;;10.47;;
1991;SDS011;997;48.448;8.924;2022-11-30T15:47:02;11.13;;;9.93;;
1991;SDS011;997;48.448;8.924;2022-11-30T15:49:31;12.50;;;10.77;;
1991;SDS011;997;48.448;8.924;2022-11-30T15:54:54;14.27;;;11.10;;
1991;SDS011;997;48.448;8.924;2022-11-30T15:57:21;12.33;;;10.47;;
1991;SDS011;997;48.448;8.924;2022-11-30T16:00:07;14.83;;;11.93;;
1991;SDS011;997;48.448;8.924;2022-11-30T16:02:34;15.23;;;12.23;;
1991;SDS011;997;48.448;8.924;2022-11-30T16:05:05;15.83;;;12.97;;
1991;SDS011;997;48.448;8.924;2022-11-30T16:07:36;14.87;;;12.83;;
1991;SDS011;997;48.448;8.924;2022-11-30T16:10:22;13.40;;;11.93;;
1991;SDS011;997;48.448;8.924;2022-11-30T16:12:53;19.60;;;14.53;;
1991;SDS011;997;48.448;8.924;2022-11-30T16:15:24;17.07;;;12.30;;
1991;SDS011;997;48.448;8.924;2022-11-30T16:17:52;15.20;;;12.27;;
1991;SDS011;997;48.448;8.924;2022-11-30T16:20:21;18.50;;;12.60;;
1991;SDS011;997;48.448;8.924;2022-11-30T16:22:47;16.53;;;12.23;;
1991;SDS011;997;48.448;8.924;2022-11-30T16:25:23;13.80;;;11.47;;
1991;SDS011;997;48.448;8.924;2022-11-30T16:27:49;14.70;;;11.70;;
1991;SDS011;997;48.448;8.924;2022-11-30T16:30:16;12.23;;;11.03;;
1991;SDS011;997;48.448;8.924;2022-11-30T16:32:47;13.17;;;11.17;;
1991;SDS011;997;48.448;8.924;2022-11-30T16:35:23;16.00;;;10.77;;
1991;SDS011;997;48.448;8.924;2022-11-30T16:37:54;13.73;;;10.87;;
1991;SDS011;997;48.448;8.924;2022-11-30T16:40:20;11.87;;;10.00;;
1991;SDS011;997;48.448;8.924;2022-11-30T16:42:47;12.37;;;10.97;;
1991;SDS011;997;48.448;8.924;2022-11-30T16:45:18;13.80;;;11.60;;
1991;SDS011;997;48.448;8.924;2022-11-30T16:47:45;11.70;;;10.60;;
1991;SDS011;997;48.448;8.924;2022-11-30T16:50:12;13.90;;;10.63;;
1991;SDS011;997;48.448;8.924;2022-11-30T16:52:38;10.97;;;9.87;;
1991;SDS011;997;48.448;8.924;2022-11-30T16:55:10;12.77;;;11.27;;
1991;SDS011;997;48.448;8.924;2022-11-30T16:57:36;11.37;;;9.50;;
1991;SDS011;997;48.448;8.924;2022-11-30T17:00:02;15.60;;;11.53;;
1991;SDS011;997;48.448;8.924;2022-11-30T17:02:28;14.73;;;12.20;;
1991;SDS011;997;48.448;8.924;2022-11-30T17:04:54;15.10;;;11.00;;
1991;SDS011;997;48.448;8.924;2022-11-30T17:07:20;11.37;;;10.27;;
1991;SDS011;997;48.448;8.924;2022-11-30T17:09:45;11.17;;;10.00;;
1991;SDS011;997;48.448;8.924;2022-11-30T17:12:11;10.10;;;9.20;;
1991;SDS011;997;48.448;8.924;2022-11-30T17:14:36;12.57;;;9.23;;
1991;SDS011;997;48.448;8.924;2022-11-30T17:17:02;12.23;;;10.87;;
1991;SDS011;997;48.448;8.924;2022-11-30T17:19:28;12.03;;;10.77;;
1991;SDS011;997;48.448;8.924;2022-11-30T17:21:53;12.73;;;11.10;;
1991;SDS011;997;48.448;8.924;2022-11-30T17:24:19;12.13;;;10.87;;
1991;SDS011;997;48.448;8.924;2022-11-30T17:26:45;13.70;;;10.60;;
1991;SDS011;997;48.448;8.924;2022-11-30T17:29:10;14.77;;;13.37;;
1991;SDS011;997;48.448;8.924;2022-11-30T17:31:36;13.20;;;11.90;;
1991;SDS011;997;48.448;8.924;2022-11-30T17:34:02;16.37;;;12.00;;
1991;SDS011;997;48.448;8.924;2022-11-30T17:36:28;12.50;;;10.00;;
1991;SDS011;997;48.448;8.924;2022-11-30T17:38:53;15.80;;;11.13;;
1991;SDS011;997;48.448;8.924;2022-11-30T17:41:20;13.00;;;10.73;;
1991;SDS011;997;48.448;8.924;2022-11-30T17:43:46;12.70;;;11.40;;
1991;SDS011;997;48.448;8.924;2022-11-30T17:46:13;12.73;;;10.60;;
1991;SDS011;997;48.448;8.924;2022-11-30T17:48:41;12.53;;;10.90;;
1991;SDS011;997;48.448;8.924;2022-11-30T17:51:07;13.87;;;10.80;;
1991;SDS011;997;48.448;8.924;2022-11-30T17:53:35;11.83;;;9.07;;
1991;SDS011;997;48.448;8.924;2022-11-30T17:56:03;12.43;;;11.13;;
1991;SDS011;997;48.448;8.924;2022-11-30T17:58:34;13.80;;;9.90;;
1991;SDS011;997;48.448;8.924;2022-11-30T18:01:02;14.90;;;11.03;;
1991;SDS011;997;48.448;8.924;2022-11-30T18:03:29;16.20;;;10.63;;
1991;SDS011;997;48.448;8.924;2022-11-30T18:05:58;14.27;;;10.80;;
1991;SDS011;997;48.448;8.924;2022-11-30T18:08:27;12.00;;;10.33;;
1991;SDS011;997;48.448;8.924;2022-11-30T18:10:56;15.63;;;10.27;;
1991;SDS011;997;48.448;8.924;2022-11-30T18:13:21;12.07;;;10.87;;
1991;SDS011;997;48.448;8.924;2022-11-30T18:15:47;12.10;;;10.80;;
1991;SDS011;997;48.448;8.924;2022-11-30T18:18:13;16.00;;;12.70;;
1991;SDS011;997;48.448;8.924;2022-11-30T18:20:39;15.77;;;12.00;;
1991;SDS011;997;48.448;8.924;2022-11-30T18:23:05;25.10;;;19.30;;
1991;SDS011;997;48.448;8.924;2022-11-30T18:25:30;20.97;;;14.17;;
1991;SDS011;997;48.448;8.924;2022-11-30T18:27:58;14.87;;;13.27;;
1991;SDS011;997;48.448;8.924;2022-11-30T18:30:25;13.90;;;12.57;;
1991;SDS011;997;48.448;8.924;2022-11-30T18:32:51;13.00;;;11.50;;
1991;SDS011;997;48.448;8.924;2022-11-30T18:35:16;10.57;;;9.63;;
1991;SDS011;997;48.448;8.924;2022-11-30T18:37:42;10.77;;;9.70;;
1991;SDS011;997;48.448;8.924;2022-11-30T18:40:08;9.63;;;8.00;;
1991;SDS011;997;48.448;8.924;2022-11-30T18:42:34;11.17;;;9.53;;
1991;SDS011;997;48.448;8.924;2022-11-30T18:45:00;11.13;;;9.93;;
1991;SDS011;997;48.448;8.924;2022-11-30T18:47:25;8.60;;;7.40;;
1991;SDS011;997;48.448;8.924;2022-11-30T18:49:51;9.50;;;8.70;;
1991;SDS011;997;48.448;8.924;2022-11-30T18:52:17;11.30;;;10.20;;
1991;SDS011;997;48.448;8.924;2022-11-30T18:54:42;7.43;;;6.70;;
1991;SDS011;997;48.448;8.924;2022-11-30T18:57:08;10.60;;;9.47;;
1991;SDS011;997;48.448;8.924;2022-11-30T18:59:34;8.43;;;7.33;;
1991;SDS011;997;48.448;8.924;2022-11-30T19:01:59;8.03;;;7.23;;
1991;SDS011;997;48.448;8.924;2022-11-30T19:04:25;9.83;;;8.83;;
1991;SDS011;997;48.448;8.924;2022-11-30T19:06:51;10.50;;;8.40;;
1991;SDS011;997;48.448;8.924;2022-11-30T19:09:16;11.03;;;8.50;;
1991;SDS011;997;48.448;8.924;2022-11-30T19:11:47;9.97;;;8.97;;
1991;SDS011;997;48.448;8.924;2022-11-30T19:14:13;10.60;;;9.57;;
1991;SDS011;997;48.448;8.924;2022-11-30T19:16:40;9.83;;;8.80;;
1991;SDS011;997;48.448;8.924;2022-11-30T19:19:08;11.63;;;8.67;;
1991;SDS011;997;48.448;8.924;2022-11-30T19:21:36;9.80;;;8.33;;
1991;SDS011;997;48.448;8.924;2022-11-30T19:24:02;10.07;;;9.00;;
1991;SDS011;997;48.448;8.924;2022-11-30T19:26:28;10.40;;;9.30;;
1991;SDS011;997;48.448;8.924;2022-11-30T19:28:54;11.07;;;9.87;;
1991;SDS011;997;48.448;8.924;2022-11-30T19:31:22;14.70;;;12.30;;
1991;SDS011;997;48.448;8.924;2022-11-30T19:33:49;33.17;;;22.80;;
1991;SDS011;997;48.448;8.924;2022-11-30T19:36:18;16.60;;;12.40;;
1991;SDS011;997;48.448;8.924;2022-11-30T19:38:45;14.33;;;12.93;;
1991;SDS011;997;48.448;8.924;2022-11-30T19:41:12;10.37;;;8.90;;
1991;SDS011;997;48.448;8.924;2022-11-30T19:43:39;16.93;;;15.07;;
1991;SDS011;997;48.448;8.924;2022-11-30T19:46:06;11.53;;;9.97;;
1991;SDS011;997;48.448;8.924;2022-11-30T19:48:36;12.37;;;11.00;;
1991;SDS011;997;48.448;8.924;2022-11-30T19:51:03;14.70;;;11.33;;
1991;SDS011;997;48.448;8.924;2022-11-30T19:53:31;10.80;;;9.43;;
1991;SDS011;997;48.448;8.924;2022-11-30T19:55:57;13.50;;;9.80;;
1991;SDS011;997;48.448;8.924;2022-11-30T19:58:22;13.50;;;11.80;;
1991;SDS011;997;48.448;8.924;2022-11-30T20:00:48;14.50;;;13.00;;
1991;SDS011;997;48.448;8.924;2022-11-30T20:03:14;10.60;;;9.50;;
1991;SDS011;997;48.448;8.924;2022-11-30T20:05:39;10.40;;;8.80;;
1991;SDS011;997;48.448;8.924;2022-11-30T20:08:13;13.03;;;11.53;;
1991;SDS011;997;48.448;8.924;2022-11-30T20:10:39;10.50;;;9.40;;
1991;SDS011;997;48.448;8.924;2022-11-30T20:13:04;15.27;;;12.60;;
1991;SDS011;997;48.448;8.924;2022-11-30T20:15:30;10.47;;;8.93;;
1991;SDS011;997;48.448;8.924;2022-11-30T20:17:56;12.40;;;11.10;;
1991;SDS011;997;48.448;8.924;2022-11-30T20:20:21;16.60;;;14.37;;
1991;SDS011;997;48.448;8.924;2022-11-30T20:22:47;20.83;;;15.00;;
1991;SDS011;997;48.448;8.924;2022-11-30T20:25:13;28.50;;;19.30;;
1991;SDS011;997;48.448;8.924;2022-11-30T20:27:38;59.60;;;39.07;;
1991;SDS011;997;48.448;8.924;2022-11-30T20:30:04;33.53;;;23.43;;
1991;SDS011;997;48.448;8.924;2022-11-30T20:32:32;37.33;;;25.20;;
1991;SDS011;997;48.448;8.924;2022-11-30T20:35:00;31.43;;;24.93;;
1991;SDS011;997;48.448;8.924;2022-11-30T20:37:26;23.10;;;19.20;;
1991;SDS011;997;48.448;8.924;2022-11-30T20:39:52;15.40;;;12.80;;
1991;SDS011;997;48.448;8.924;2022-11-30T20:42:17;15.63;;;11.00;;
1991;SDS011;997;48.448;8.924;2022-11-30T20:44:43;13.37;;;10.50;;
1991;SDS011;997;48.448;8.924;2022-11-30T20:47:09;11.80;;;10.70;;
1991;SDS011;997;48.448;8.924;2022-11-30T20:49:35;13.87;;;10.80;;
1991;SDS011;997;48.448;8.924;2022-11-30T20:52:01;15.60;;;10.77;;
1991;SDS011;997;48.448;8.924;2022-11-30T20:54:27;13.43;;;11.80;;
1991;SDS011;997;48.448;8.924;2022-11-30T20:56:54;12.50;;;10.80;;
1991;SDS011;997;48.448;8.924;2022-11-30T20:59:21;14.17;;;11.50;;
1991;SDS011;997;48.448;8.924;2022-11-30T21:01:50;14.43;;;10.80;;
1991;SDS011;997;48.448;8.924;2022-11-30T21:04:17;15.40;;;11.40;;
1991;SDS011;997;48.448;8.924;2022-11-30T21:06:44;15.23;;;12.17;;
1991;SDS011;997;48.448;8.924;2022-11-30T21:09:13;10.20;;;9.30;;
1991;SDS011;997;48.448;8.924;2022-11-30T21:11:40;12.90;;;11.63;;
1991;SDS011;997;48.448;8.924;2022-11-30T21:14:06;13.03;;;11.70;;
1991;SDS011;997;48.448;8.924;2022-11-30T21:16:32;13.73;;;12.23;;
1991;SDS011;997;48.448;8.924;2022-11-30T21:18:58;11.93;;;9.83;;
1991;SDS011;997;48.448;8.924;2022-11-30T21:21:25;16.53;;;12.50;;
1991;SDS011;997;48.448;8.924;2022-11-30T21:23:55;12.50;;;10.53;;
1991;SDS011;997;48.448;8.924;2022-11-30T21:26:23;10.20;;;9.10;;
1991;SDS011;997;48.448;8.924;2022-11-30T21:28:51;11.93;;;9.23;;
1991;SDS011;997;48.448;8.924;2022-11-30T21:31:18;13.10;;;9.77;;
1991;SDS011;997;48.448;8.924;2022-11-30T21:33:44;13.60;;;10.97;;
1991;SDS011;997;48.448;8.924;2022-11-30T21:36:11;11.60;;;10.00;;
1991;SDS011;997;48.448;8.924;2022-11-30T21:38:38;13.37;;;9.80;;
1991;SDS011;997;48.448;8.924;2022-11-30T21:41:04;12.80;;;10.00;;
1991;SDS011;997;48.448;8.924;2022-11-30T21:43:32;14.83;;;11.47;;
1991;SDS011;997;48.448;8.924;2022-11-30T21:45:59;15.10;;;11.17;;
1991;SDS011;997;48.448;8.924;2022-11-30T21:48:45;18.87;;;13.70;;
1991;SDS011;997;48.448;8.924;2022-11-30T21:51:23;14.07;;;12.50;;
1991;SDS011;997;48.448;8.924;2022-11-30T21:53:51;25.50;;;17.17;;
1991;SDS011;997;48.448;8.924;2022-11-30T21:56:19;25.07;;;16.00;;
1991;SDS011;997;48.448;8.924;2022-11-30T21:58:48;17.63;;;12.80;;
1991;SDS011;997;48.448;8.924;2022-11-30T22:01:18;14.17;;;11.20;;
1991;SDS011;997;48.448;8.924;2022-11-30T22:03:47;12.93;;;10.57;;
1991;SDS011;997;48.448;8.924;2022-11-30T22:06:14;17.03;;;12.07;;
1991;SDS011;997;48.448;8.924;2022-11-30T22:08:42;15.47;;;12.40;;
1991;SDS011;997;48.448;8.924;2022-11-30T22:11:09;14.43;;;10.90;;
1991;SDS011;997;48.448;8.924;2022-11-30T22:13:39;14.60;;;12.27;;
1991;SDS011;997;48.448;8.924;2022-11-30T22:16:07;19.10;;;13.10;;
1991;SDS011;997;48.448;8.924;2022-11-30T22:18:33;17.40;;;12.17;;